Terminal Aerodrome Forecast
Issued by NWS

Home | Current Version | Previous Version | Text Only | Print | Product List | Glossary On
Versions: 1 2 3 4 5 6 7 8 9 10 11 12 13 14 15 16 17 18 19 20 21 22 23 24 25 26
000
FTUS46 KOTX 271126
TAFMWH
TAF
KMWH 271126Z 2712/2812 01007KT P6SM VCSH OVC070
     FM271800 03018G24KT P6SM BKN090
     FM280400 02024G30KT P6SM SCT250=

USA.gov is the U.S. government's official web portal to all federal, state and local government web resources and services.